sensor_id;sensor_type;location;lat;lon;timestamp;temperature;humidity
6954;DHT22;3516;47.980;8.808;2023-08-08T19:53:27;13.70;99.90
6954;DHT22;3516;47.980;8.808;2023-08-08T19:55:54;13.70;99.90
6954;DHT22;3516;47.980;8.808;2023-08-08T19:58:24;13.60;99.90
6954;DHT22;3516;47.980;8.808;2023-08-08T20:00:51;13.60;99.90
6954;DHT22;3516;47.980;8.808;2023-08-08T20:03:18;13.50;99.90
6954;DHT22;3516;47.980;8.808;2023-08-08T20:05:45;13.50;99.90
6954;DHT22;3516;47.980;8.808;2023-08-08T20:08:11;13.40;99.90
6954;DHT22;3516;47.980;8.808;2023-08-08T20:10:38;13.40;99.90
6954;DHT22;3516;47.980;8.808;2023-08-08T20:13:05;13.30;99.90
6954;DHT22;3516;47.980;8.808;2023-08-08T20:15:33;13.30;99.90
6954;DHT22;3516;47.980;8.808;2023-08-08T20:18:00;13.20;99.90
6954;DHT22;3516;47.980;8.808;2023-08-08T20:20:27;13.20;99.90
6954;DHT22;3516;47.980;8.808;2023-08-08T20:22:53;13.10;99.90
6954;DHT22;3516;47.980;8.808;2023-08-08T20:25:20;13.10;99.90
6954;DHT22;3516;47.980;8.808;2023-08-08T20:27:47;13.00;99.90
6954;DHT22;3516;47.980;8.808;2023-08-08T20:30:14;13.00;99.90
6954;DHT22;3516;47.980;8.808;2023-08-08T20:32:42;13.00;99.90
6954;DHT22;3516;47.980;8.808;2023-08-08T20:35:09;12.90;99.90
6954;DHT22;3516;47.980;8.808;2023-08-08T20:37:36;12.80;99.90
6954;DHT22;3516;47.980;8.808;2023-08-08T20:40:03;12.80;99.90
6954;DHT22;3516;47.980;8.808;2023-08-08T20:42:30;12.70;99.90
6954;DHT22;3516;47.980;8.808;2023-08-08T20:44:56;12.70;99.90
6954;DHT22;3516;47.980;8.808;2023-08-08T20:47:23;12.70;99.90
6954;DHT22;3516;47.980;8.808;2023-08-08T20:49:51;12.60;99.90
6954;DHT22;3516;47.980;8.808;2023-08-08T20:52:18;12.60;99.90
6954;DHT22;3516;47.980;8.808;2023-08-08T20:54:45;12.60;99.90
6954;DHT22;3516;47.980;8.808;2023-08-08T20:57:12;12.60;99.90
6954;DHT22;3516;47.980;8.808;2023-08-08T20:59:38;12.50;99.90
6954;DHT22;3516;47.980;8.808;2023-08-08T21:02:06;12.50;99.90
6954;DHT22;3516;47.980;8.808;2023-08-08T21:04:33;12.60;99.90
6954;DHT22;3516;47.980;8.808;2023-08-08T21:07:02;12.60;99.90
6954;DHT22;3516;47.980;8.808;2023-08-08T21:09:28;12.60;99.90
6954;DHT22;3516;47.980;8.808;2023-08-08T21:11:55;12.60;99.90
6954;DHT22;3516;47.980;8.808;2023-08-08T21:14:22;12.60;99.90
6954;DHT22;3516;47.980;8.808;2023-08-08T21:16:48;12.60;99.90
6954;DHT22;3516;47.980;8.808;2023-08-08T21:19:15;12.60;99.90
6954;DHT22;3516;47.980;8.808;2023-08-08T21:21:42;12.60;99.90
6954;DHT22;3516;47.980;8.808;2023-08-08T21:24:10;12.60;99.90
6954;DHT22;3516;47.980;8.808;2023-08-08T21:26:36;12.60;99.90
6954;DHT22;3516;47.980;8.808;2023-08-08T21:29:03;12.60;99.90
6954;DHT22;3516;47.980;8.808;2023-08-08T21:31:30;12.60;99.90
6954;DHT22;3516;47.980;8.808;2023-08-08T21:33:56;12.60;99.90
6954;DHT22;3516;47.980;8.808;2023-08-08T21:36:24;12.50;99.90
6954;DHT22;3516;47.980;8.808;2023-08-08T21:38:50;12.50;99.90
6954;DHT22;3516;47.980;8.808;2023-08-08T21:41:18;12.50;99.90
6954;DHT22;3516;47.980;8.808;2023-08-08T21:43:45;12.50;99.90
6954;DHT22;3516;47.980;8.808;2023-08-08T21:46:12;12.40;99.90
6954;DHT22;3516;47.980;8.808;2023-08-08T21:48:39;12.40;99.90
6954;DHT22;3516;47.980;8.808;2023-08-08T21:51:05;12.40;99.90
6954;DHT22;3516;47.980;8.808;2023-08-08T21:53:33;12.30;99.90
6954;DHT22;3516;47.980;8.808;2023-08-08T21:56:00;12.30;99.90
6954;DHT22;3516;47.980;8.808;2023-08-08T21:58:28;12.30;99.90
6954;DHT22;3516;47.980;8.808;2023-08-08T22:00:55;12.40;99.90
6954;DHT22;3516;47.980;8.808;2023-08-08T22:03:22;12.40;99.90
6954;DHT22;3516;47.980;8.808;2023-08-08T22:05:49;12.30;99.90
6954;DHT22;3516;47.980;8.808;2023-08-08T22:08:15;12.40;99.90
6954;DHT22;3516;47.980;8.808;2023-08-08T22:10:42;12.40;99.90
6954;DHT22;3516;47.980;8.808;2023-08-08T22:13:09;12.40;99.90
6954;DHT22;3516;47.980;8.808;2023-08-08T22:15:37;12.40;99.90
6954;DHT22;3516;47.980;8.808;2023-08-08T22:18:10;12.40;99.90
6954;DHT22;3516;47.980;8.808;2023-08-08T22:20:38;12.40;99.90
6954;DHT22;3516;47.980;8.808;2023-08-08T22:23:05;12.50;99.90
6954;DHT22;3516;47.980;8.808;2023-08-08T22:25:32;12.50;99.90
6954;DHT22;3516;47.980;8.808;2023-08-08T22:27:58;12.50;99.90
6954;DHT22;3516;47.980;8.808;2023-08-08T22:30:25;12.60;99.90
6954;DHT22;3516;47.980;8.808;2023-08-08T22:32:53;12.70;99.90
6954;DHT22;3516;47.980;8.808;2023-08-08T22:35:20;12.70;99.90
6954;DHT22;3516;47.980;8.808;2023-08-08T22:37:48;12.70;99.90
6954;DHT22;3516;47.980;8.808;2023-08-08T22:40:15;12.80;99.90
6954;DHT22;3516;47.980;8.808;2023-08-08T22:42:41;12.80;99.90
6954;DHT22;3516;47.980;8.808;2023-08-08T22:45:09;12.90;99.90
6954;DHT22;3516;47.980;8.808;2023-08-08T22:47:36;12.90;99.90
6954;DHT22;3516;47.980;8.808;2023-08-08T22:50:07;12.90;99.90
6954;DHT22;3516;47.980;8.808;2023-08-08T22:52:34;13.00;99.90
6954;DHT22;3516;47.980;8.808;2023-08-08T22:55:00;13.00;99.90
6954;DHT22;3516;47.980;8.808;2023-08-08T22:57:27;13.00;99.90
6954;DHT22;3516;47.980;8.808;2023-08-08T22:59:54;13.00;99.90
6954;DHT22;3516;47.980;8.808;2023-08-08T23:02:21;13.00;99.90
6954;DHT22;3516;47.980;8.808;2023-08-08T23:04:48;13.10;99.90
6954;DHT22;3516;47.980;8.808;2023-08-08T23:07:16;13.10;99.90
6954;DHT22;3516;47.980;8.808;2023-08-08T23:09:43;13.10;99.90
6954;DHT22;3516;47.980;8.808;2023-08-08T23:12:10;13.10;99.90
6954;DHT22;3516;47.980;8.808;2023-08-08T23:14:37;13.10;99.90
6954;DHT22;3516;47.980;8.808;2023-08-08T23:17:04;13.10;99.90
6954;DHT22;3516;47.980;8.808;2023-08-08T23:19:30;13.20;99.90
6954;DHT22;3516;47.980;8.808;2023-08-08T23:21:57;13.20;99.90
6954;DHT22;3516;47.980;8.808;2023-08-08T23:24:25;13.20;99.90
6954;DHT22;3516;47.980;8.808;2023-08-08T23:26:52;13.20;99.90
6954;DHT22;3516;47.980;8.808;2023-08-08T23:29:19;13.20;99.90
6954;DHT22;3516;47.980;8.808;2023-08-08T23:31:47;13.20;99.90
6954;DHT22;3516;47.980;8.808;2023-08-08T23:34:14;13.20;99.90
6954;DHT22;3516;47.980;8.808;2023-08-08T23:36:41;13.20;99.90
6954;DHT22;3516;47.980;8.808;2023-08-08T23:39:07;13.20;99.90
6954;DHT22;3516;47.980;8.808;2023-08-08T23:41:35;13.20;99.90
6954;DHT22;3516;47.980;8.808;2023-08-08T23:44:02;13.20;99.90
6954;DHT22;3516;47.980;8.808;2023-08-08T23:46:29;13.20;99.90
6954;DHT22;3516;47.980;8.808;2023-08-08T23:48:56;13.20;99.90
6954;DHT22;3516;47.980;8.808;2023-08-08T23:51:23;13.20;99.90
6954;DHT22;3516;47.980;8.808;2023-08-08T23:53:49;13.20;99.90
6954;DHT22;3516;47.980;8.808;2023-08-08T23:56:16;13.20;99.90
6954;DHT22;3516;47.980;8.808;2023-08-08T23:58:44;13.20;99.90
